createdAt,value
2023-01-20T00:01:31.767Z,98833.03
2023-01-20T00:04:02.567Z,98845.19
2023-01-20T00:06:32.867Z,98838.97
2023-01-20T00:09:04.271Z,98839.78
2023-01-20T00:11:34.043Z,98846.44
2023-01-20T00:14:05.009Z,98845.44
2023-01-20T00:16:37.131Z,98853.59
2023-01-20T00:19:06.985Z,98855.81
2023-01-20T00:21:37.078Z,98845.94
2023-01-20T00:24:07.334Z,98851.84
2023-01-20T00:26:36.941Z,98858.84
2023-01-20T00:29:06.507Z,98864.84
2023-01-20T00:31:38.973Z,98870.25
2023-01-20T00:34:08.546Z,98875.66
2023-01-20T00:36:38.127Z,98876.19
2023-01-20T00:39:08.106Z,98873.38
2023-01-20T00:41:37.640Z,98877.88
2023-01-20T00:44:07.421Z,98885.91
2023-01-20T00:46:39.524Z,98886.34
2023-01-20T00:49:09.049Z,98884.09
2023-01-20T00:51:38.603Z,98892.34
2023-01-20T00:54:08.639Z,98887.31
2023-01-20T00:56:38.198Z,98887.38
2023-01-20T00:59:07.687Z,98899.38
2023-01-20T01:01:39.899Z,98901.66
2023-01-20T01:04:09.564Z,98905.75
2023-01-20T01:06:39.595Z,98910.28
2023-01-20T01:09:09.188Z,98914.78
2023-01-20T01:11:38.749Z,98914.94
2023-01-20T01:14:08.270Z,98917.63
2023-01-20T01:16:40.411Z,98915.19
2023-01-20T01:19:10.194Z,98920.44
2023-01-20T01:21:39.810Z,98922.94
2023-01-20T01:24:09.432Z,98918.66
2023-01-20T01:26:38.973Z,98925.75
2023-01-20T01:29:08.501Z,98935.31
2023-01-20T01:31:40.658Z,98932.00
2023-01-20T01:34:10.976Z,98932.38
2023-01-20T01:36:40.540Z,98927.94
2023-01-20T01:39:10.162Z,98939.75
2023-01-20T01:41:39.738Z,98941.06
2023-01-20T01:44:11.998Z,98944.94
2023-01-20T01:46:45.497Z,98948.16
2023-01-20T01:49:20.474Z,98943.41
2023-01-20T01:51:58.442Z,98938.44
2023-01-20T01:54:32.561Z,98940.88
2023-01-20T01:57:02.896Z,98946.34
2023-01-20T01:59:32.794Z,98944.34
2023-01-20T02:02:05.110Z,98949.88
2023-01-20T02:04:35.228Z,98953.88
2023-01-20T02:07:10.793Z,98949.81
2023-01-20T02:09:41.023Z,98950.72
2023-01-20T02:12:13.611Z,98959.13
2023-01-20T02:14:46.064Z,98959.53
2023-01-20T02:17:28.225Z,98962.44
2023-01-20T02:20:25.939Z,98967.53
2023-01-20T02:23:02.411Z,98964.19
2023-01-20T02:26:10.469Z,98966.50
2023-01-20T02:29:09.753Z,98962.50
2023-01-20T02:32:04.770Z,98964.03
2023-01-20T02:34:38.134Z,98969.19
2023-01-20T02:37:13.514Z,98962.84
2023-01-20T02:39:47.353Z,98973.31
2023-01-20T02:42:24.909Z,98982.88
2023-01-20T02:44:59.671Z,98985.19
2023-01-20T02:47:35.855Z,98983.13
2023-01-20T02:50:12.784Z,98988.13
2023-01-20T02:52:46.461Z,98987.31
2023-01-20T02:55:31.723Z,98988.78
2023-01-20T02:58:05.842Z,98983.84
2023-01-20T03:00:39.579Z,98985.97
2023-01-20T03:03:15.673Z,98995.78
2023-01-20T03:05:51.571Z,98987.88
2023-01-20T03:08:23.643Z,98998.97
2023-01-20T03:10:57.290Z,98998.34
2023-01-20T03:13:32.682Z,99000.00
2023-01-20T03:16:06.414Z,98997.06
2023-01-20T03:18:40.421Z,99001.00
2023-01-20T03:21:12.021Z,99004.47
2023-01-20T03:23:45.589Z,99002.41
2023-01-20T03:26:17.607Z,99009.06
2023-01-20T03:28:48.909Z,99003.69
2023-01-20T03:31:24.158Z,99001.47
2023-01-20T03:33:59.568Z,99009.63
2023-01-20T03:36:32.484Z,99013.75
2023-01-20T03:39:02.257Z,99023.44
2023-01-20T03:41:41.110Z,99024.06
2023-01-20T03:44:15.351Z,99019.03
2023-01-20T03:46:52.270Z,99023.91
2023-01-20T03:49:31.073Z,99031.78
2023-01-20T03:52:06.382Z,99030.84
2023-01-20T03:54:46.725Z,99033.59
2023-01-20T03:57:21.005Z,99024.31
2023-01-20T03:59:53.790Z,99032.38
2023-01-20T04:02:25.563Z,99040.81
2023-01-20T04:04:59.359Z,99040.19
2023-01-20T04:07:29.522Z,99052.53
2023-01-20T04:10:04.051Z,99058.31
2023-01-20T04:12:35.885Z,99057.13
2023-01-20T04:15:05.648Z,99057.09
2023-01-20T04:17:35.298Z,99061.00
2023-01-20T04:20:11.985Z,99064.56
2023-01-20T04:22:48.823Z,99069.63
2023-01-20T04:25:25.510Z,99072.41
2023-01-20T04:27:55.081Z,99071.28
2023-01-20T04:30:24.730Z,99068.47
2023-01-20T04:32:54.336Z,99075.47
2023-01-20T04:35:26.852Z,99077.25
2023-01-20T04:37:56.395Z,99087.78
2023-01-20T04:40:25.931Z,99091.69
2023-01-20T04:42:55.491Z,99090.09
2023-01-20T04:45:25.059Z,99088.03
2023-01-20T04:47:54.623Z,99094.03
2023-01-20T04:50:26.737Z,99098.25
2023-01-20T04:53:00.528Z,99093.75
2023-01-20T04:55:30.278Z,99102.88
2023-01-20T04:57:59.828Z,99104.38
2023-01-20T05:00:29.550Z,99105.63
2023-01-20T05:03:00.255Z,99107.03
2023-01-20T05:05:32.355Z,99113.00
2023-01-20T05:08:02.975Z,99111.25
2023-01-20T05:10:32.521Z,99113.63
2023-01-20T05:13:02.761Z,99124.44
2023-01-20T05:15:32.334Z,99119.25
2023-01-20T05:18:01.932Z,99122.94
2023-01-20T05:20:34.098Z,99124.31
2023-01-20T05:23:03.810Z,99125.78
2023-01-20T05:25:33.380Z,99142.78
2023-01-20T05:28:02.948Z,99133.72
2023-01-20T05:30:32.527Z,99142.34
2023-01-20T05:33:02.090Z,99143.19
2023-01-20T05:35:34.162Z,99149.09
2023-01-20T05:38:03.653Z,99157.84
2023-01-20T05:40:33.355Z,99152.81
2023-01-20T05:43:03.239Z,99155.72
2023-01-20T05:45:33.542Z,99160.41
2023-01-20T05:48:04.705Z,99164.88
2023-01-20T05:50:36.991Z,99156.00
2023-01-20T05:53:06.594Z,99164.78
2023-01-20T05:55:36.148Z,99159.13
2023-01-20T05:58:06.257Z,99161.91
2023-01-20T06:00:35.783Z,99165.41
2023-01-20T06:03:05.550Z,99164.19
2023-01-20T06:05:37.722Z,99166.25
2023-01-20T06:08:07.982Z,99165.84
2023-01-20T06:10:37.536Z,99164.78
2023-01-20T06:13:07.048Z,99173.00
2023-01-20T06:15:36.558Z,99179.44
2023-01-20T06:18:06.586Z,99174.97
2023-01-20T06:20:38.788Z,99180.03
2023-01-20T06:23:08.313Z,99173.06
2023-01-20T06:25:37.831Z,99186.28
2023-01-20T06:28:07.705Z,99184.09
2023-01-20T06:30:38.272Z,99185.91
2023-01-20T06:33:10.948Z,99189.63
2023-01-20T06:35:43.095Z,99189.41
2023-01-20T06:38:12.637Z,99193.88
2023-01-20T06:40:42.133Z,99194.03
2023-01-20T06:43:11.688Z,99199.22
2023-01-20T06:45:41.261Z,99200.00
2023-01-20T06:48:10.818Z,99212.53
2023-01-20T06:50:42.902Z,99203.75
2023-01-20T06:53:12.489Z,99210.84
2023-01-20T06:55:41.993Z,99200.34
2023-01-20T06:58:11.582Z,99206.94
2023-01-20T07:00:41.203Z,99223.63
2023-01-20T07:03:14.001Z,99228.56
2023-01-20T07:05:46.196Z,99231.84
2023-01-20T07:08:15.729Z,99239.84
2023-01-20T07:10:45.704Z,99243.22
2023-01-20T07:13:15.297Z,99249.56
2023-01-20T07:15:44.856Z,99251.13
2023-01-20T07:18:14.455Z,99267.34
2023-01-20T07:20:46.567Z,99281.16
2023-01-20T07:23:16.488Z,99283.44
2023-01-20T07:25:46.012Z,99287.00
2023-01-20T07:28:15.657Z,99282.19
2023-01-20T07:30:45.276Z,99287.88
2023-01-20T07:33:14.857Z,99291.75
2023-01-20T07:35:47.052Z,99302.41
2023-01-20T07:38:16.868Z,99293.84
2023-01-20T07:40:46.363Z,99298.59
2023-01-20T07:43:15.922Z,99292.22
2023-01-20T07:45:45.504Z,99293.25
2023-01-20T07:48:15.058Z,99291.72
2023-01-20T07:50:47.220Z,99300.16
2023-01-20T07:53:16.845Z,99305.06
2023-01-20T07:55:46.409Z,99298.97
2023-01-20T07:58:15.939Z,99306.09
2023-01-20T08:00:48.735Z,99307.41
2023-01-20T08:03:18.494Z,99313.59
2023-01-20T08:05:50.592Z,99320.09
2023-01-20T08:08:20.114Z,99322.63
2023-01-20T08:10:56.592Z,99314.72
2023-01-20T08:13:26.184Z,99321.00
2023-01-20T08:15:55.754Z,99327.44
2023-01-20T08:18:25.361Z,99317.03
2023-01-20T08:20:57.494Z,99326.00
2023-01-20T08:23:27.433Z,99325.72
2023-01-20T08:26:00.441Z,99330.22
2023-01-20T08:28:30.693Z,99331.38
2023-01-20T08:31:06.725Z,99332.00
2023-01-20T08:33:36.358Z,99343.97
2023-01-20T08:36:12.105Z,99342.28
2023-01-20T08:38:42.266Z,99338.00
2023-01-20T08:41:12.850Z,99346.56
2023-01-20T08:43:42.755Z,99355.63
2023-01-20T08:46:14.565Z,99350.84
2023-01-20T08:48:45.610Z,99361.47
2023-01-20T08:51:20.378Z,99357.44
2023-01-20T08:53:50.501Z,99363.81
2023-01-20T08:56:20.967Z,99364.22
2023-01-20T08:58:50.664Z,99372.53
2023-01-20T09:01:23.965Z,99373.44
2023-01-20T09:04:05.025Z,99364.59
2023-01-20T09:06:41.683Z,99360.06
2023-01-20T09:09:11.348Z,99375.19
2023-01-20T09:11:44.820Z,99367.16
2023-01-20T09:14:14.648Z,99370.56
2023-01-20T09:16:44.253Z,99365.63
2023-01-20T09:19:13.786Z,99365.03
2023-01-20T09:21:45.932Z,99375.75
2023-01-20T09:24:15.689Z,99379.13
2023-01-20T09:26:45.522Z,99390.28
2023-01-20T09:29:17.195Z,99392.69
2023-01-20T09:31:51.409Z,99400.13
2023-01-20T09:34:24.659Z,99400.88
2023-01-20T09:37:19.323Z,99407.31
2023-01-20T09:40:07.764Z,99409.16
2023-01-20T09:43:00.516Z,99405.53
2023-01-20T09:45:35.049Z,99408.81
2023-01-20T09:48:26.359Z,99408.00
2023-01-20T09:51:14.259Z,99423.16
2023-01-20T09:53:58.641Z,99426.03
2023-01-20T09:56:30.496Z,99432.41
2023-01-20T09:59:06.133Z,99434.34
2023-01-20T10:01:38.845Z,99435.66
2023-01-20T10:04:16.362Z,99432.88
2023-01-20T10:06:50.441Z,99439.91
2023-01-20T10:09:31.560Z,99440.69
2023-01-20T10:12:08.802Z,99432.50
2023-01-20T10:14:43.637Z,99440.94
2023-01-20T10:17:19.104Z,99444.47
2023-01-20T10:19:56.260Z,99442.66
2023-01-20T10:22:32.278Z,99446.00
2023-01-20T10:25:09.579Z,99451.09
2023-01-20T10:27:44.352Z,99453.84
2023-01-20T10:30:16.856Z,99449.97
2023-01-20T10:32:53.262Z,99451.19
2023-01-20T10:35:26.994Z,99448.44
2023-01-20T10:37:58.607Z,99457.69
2023-01-20T10:40:39.053Z,99454.81
2023-01-20T10:43:14.019Z,99453.53
2023-01-20T10:46:04.057Z,99459.47
2023-01-20T10:48:52.747Z,99452.19
2023-01-20T10:51:33.960Z,99454.53
2023-01-20T10:54:15.324Z,99468.38
2023-01-20T10:56:53.679Z,99466.31
2023-01-20T10:59:32.004Z,99474.47
2023-01-20T11:02:12.445Z,99467.56
2023-01-20T11:04:43.677Z,99469.44
2023-01-20T11:07:18.911Z,99472.06
2023-01-20T11:09:51.455Z,99473.16
2023-01-20T11:12:28.293Z,99479.25
2023-01-20T11:15:02.262Z,99476.66
2023-01-20T11:17:32.027Z,99478.19
2023-01-20T11:20:07.982Z,99474.22
2023-01-20T11:22:40.257Z,99477.34
2023-01-20T11:25:26.432Z,99480.78
2023-01-20T11:27:59.004Z,99489.16
2023-01-20T11:30:32.298Z,99493.75
2023-01-20T11:33:18.925Z,99496.41
2023-01-20T11:36:03.241Z,99505.34
2023-01-20T11:38:34.266Z,99493.34
2023-01-20T11:41:03.870Z,99487.81
2023-01-20T11:43:40.769Z,99490.94
2023-01-20T11:46:25.191Z,99494.88
2023-01-20T11:49:19.498Z,99498.25
2023-01-20T11:51:54.627Z,99500.38
2023-01-20T11:54:25.872Z,99511.84
2023-01-20T11:56:58.607Z,99500.38
2023-01-20T11:59:35.039Z,99491.81
2023-01-20T12:02:24.674Z,99506.13
2023-01-20T12:05:09.827Z,99508.06
2023-01-20T12:07:44.778Z,99509.94
2023-01-20T12:10:21.607Z,99506.91
2023-01-20T12:12:54.003Z,99510.34
2023-01-20T12:15:28.988Z,99505.03
2023-01-20T12:18:02.597Z,99502.34
2023-01-20T12:20:54.219Z,99506.53
2023-01-20T12:23:35.665Z,99505.28
2023-01-20T12:26:07.471Z,99522.38
2023-01-20T12:28:41.651Z,99522.41
2023-01-20T12:31:17.347Z,99520.56
2023-01-20T12:33:47.505Z,99523.84
2023-01-20T12:36:52.795Z,99522.19
2023-01-20T12:39:42.236Z,99525.94
2023-01-20T12:42:47.871Z,99521.09
2023-01-20T12:45:29.052Z,99527.19
2023-01-20T12:48:26.266Z,99520.66
2023-01-20T12:51:11.493Z,99531.84
2023-01-20T12:53:59.216Z,99537.03
2023-01-20T12:56:42.574Z,99532.94
2023-01-20T12:59:27.240Z,99538.59
2023-01-20T13:02:11.866Z,99541.16
2023-01-20T13:05:02.724Z,99545.22
2023-01-20T13:07:51.383Z,99541.66
2023-01-20T13:10:50.918Z,99539.88
2023-01-20T13:13:40.246Z,99530.28
2023-01-20T13:16:23.706Z,99539.56
2023-01-20T13:19:07.680Z,99535.75
2023-01-20T13:21:41.213Z,99541.13
2023-01-20T13:24:19.649Z,99543.91
2023-01-20T13:26:51.163Z,99543.38
2023-01-20T13:29:25.411Z,99547.41
2023-01-20T13:31:55.577Z,99549.97
2023-01-20T13:34:43.136Z,99550.16
2023-01-20T13:37:31.857Z,99558.09
2023-01-20T13:40:02.482Z,99555.97
2023-01-20T13:42:49.457Z,99563.47
2023-01-20T13:45:24.812Z,99563.56
2023-01-20T13:47:57.596Z,99571.81
2023-01-20T13:50:30.896Z,99575.53
2023-01-20T13:53:16.645Z,99578.22
2023-01-20T13:55:57.044Z,99584.47
2023-01-20T13:58:27.757Z,99586.56
2023-01-20T14:00:59.255Z,99589.38
2023-01-20T14:03:31.317Z,99594.09
2023-01-20T14:06:02.757Z,99603.28
2023-01-20T14:08:41.760Z,99598.31
2023-01-20T14:11:16.202Z,99595.88
2023-01-20T14:13:54.260Z,99601.72
2023-01-20T14:16:28.266Z,99599.47
2023-01-20T14:19:00.302Z,99609.47
2023-01-20T14:21:31.378Z,99604.78
2023-01-20T14:24:04.294Z,99611.06
2023-01-20T14:26:34.885Z,99611.78
2023-01-20T14:29:05.267Z,99618.59
2023-01-20T14:31:40.803Z,99620.31
2023-01-20T14:34:26.964Z,99625.81
2023-01-20T14:36:59.236Z,99629.41
2023-01-20T14:39:33.381Z,99635.03
2023-01-20T14:42:04.292Z,99635.81
2023-01-20T14:44:35.535Z,99639.50
2023-01-20T14:47:06.818Z,99650.38
2023-01-20T14:49:39.496Z,99650.19
2023-01-20T14:52:10.343Z,99660.38
2023-01-20T14:54:46.200Z,99668.06
2023-01-20T14:57:25.063Z,99662.38
2023-01-20T15:00:16.471Z,99667.03
2023-01-20T15:03:01.377Z,99679.91
2023-01-20T15:05:41.038Z,99674.91
2023-01-20T15:08:26.337Z,99689.34
2023-01-20T15:11:23.241Z,99690.03
2023-01-20T15:14:08.716Z,99698.97
2023-01-20T15:16:47.567Z,99696.50
2023-01-20T15:19:36.018Z,99704.00
2023-01-20T15:22:22.096Z,99701.97
2023-01-20T15:24:52.772Z,99713.13
2023-01-20T15:27:29.273Z,99717.06
2023-01-20T15:30:19.489Z,99723.28
2023-01-20T15:32:50.379Z,99729.97
2023-01-20T15:35:23.021Z,99730.41
2023-01-20T15:37:53.241Z,99734.91
2023-01-20T15:40:24.615Z,99735.22
2023-01-20T15:42:57.548Z,99746.03
2023-01-20T15:45:28.195Z,99749.16
2023-01-20T15:47:58.464Z,99748.00
2023-01-20T15:50:31.201Z,99766.50
2023-01-20T15:53:01.003Z,99752.06
2023-01-20T15:55:30.735Z,99761.88
2023-01-20T15:58:03.744Z,99768.38
2023-01-20T16:00:33.396Z,99768.81
2023-01-20T16:03:03.678Z,99765.38
2023-01-20T16:05:33.225Z,99775.97
2023-01-20T16:08:02.771Z,99784.22
2023-01-20T16:10:32.310Z,99778.13
2023-01-20T16:13:04.603Z,99788.53
2023-01-20T16:15:34.158Z,99801.94
2023-01-20T16:18:03.748Z,99803.72
2023-01-20T16:20:33.814Z,99801.78
2023-01-20T16:23:05.875Z,99807.25
2023-01-20T16:25:35.651Z,99810.06
2023-01-20T16:28:14.801Z,99815.75
2023-01-20T16:30:44.494Z,99811.66
2023-01-20T16:33:22.902Z,99818.22
2023-01-20T16:35:54.212Z,99826.22
2023-01-20T16:38:25.759Z,99830.25
2023-01-20T16:40:58.300Z,99833.22
2023-01-20T16:43:30.572Z,99830.16
2023-01-20T16:46:00.303Z,99834.94
2023-01-20T16:48:29.877Z,99834.34
2023-01-20T16:51:04.549Z,99845.91
2023-01-20T16:53:34.729Z,99850.50
2023-01-20T16:56:04.308Z,99857.59
2023-01-20T16:58:36.451Z,99851.59
2023-01-20T17:01:12.138Z,99854.13
2023-01-20T17:03:42.389Z,99852.59
2023-01-20T17:06:13.889Z,99871.59
2023-01-20T17:08:45.813Z,99870.72
2023-01-20T17:11:19.889Z,99870.78
2023-01-20T17:13:52.478Z,99872.75
2023-01-20T17:16:23.487Z,99878.19
2023-01-20T17:18:53.871Z,99877.97
2023-01-20T17:21:25.004Z,99887.81
2023-01-20T17:23:55.934Z,99881.25
2023-01-20T17:26:26.492Z,99891.25
2023-01-20T17:29:02.237Z,99892.13
2023-01-20T17:31:34.577Z,99901.47
2023-01-20T17:34:04.189Z,99902.56
2023-01-20T17:36:34.912Z,99908.72
2023-01-20T17:39:05.826Z,99910.88
2023-01-20T17:41:36.289Z,99915.66
2023-01-20T17:44:08.673Z,99915.31
2023-01-20T17:46:38.228Z,99916.44
2023-01-20T17:49:08.155Z,99922.09
2023-01-20T17:51:37.756Z,99930.03
2023-01-20T17:54:07.364Z,99931.28
2023-01-20T17:56:36.899Z,99935.78
2023-01-20T17:59:09.021Z,99931.94
2023-01-20T18:01:38.567Z,99945.06
2023-01-20T18:04:10.466Z,99942.09
2023-01-20T18:06:40.817Z,99948.66
2023-01-20T18:09:10.504Z,99950.97
2023-01-20T18:11:40.310Z,99948.97
2023-01-20T18:14:12.725Z,99962.53
2023-01-20T18:16:43.677Z,99963.00
2023-01-20T18:19:15.472Z,99962.09
2023-01-20T18:21:45.886Z,99964.56
2023-01-20T18:24:15.671Z,99967.63
2023-01-20T18:26:45.266Z,99962.69
2023-01-20T18:29:19.282Z,99971.75
2023-01-20T18:31:49.425Z,99974.44
2023-01-20T18:34:19.168Z,99990.81
2023-01-20T18:36:49.833Z,99988.47
2023-01-20T18:39:21.775Z,99986.84
2023-01-20T18:41:52.296Z,99992.78
2023-01-20T18:44:24.988Z,99989.97
2023-01-20T18:46:54.574Z,100001.25
2023-01-20T18:49:24.453Z,99994.13
2023-01-20T18:51:53.983Z,100006.19
2023-01-20T18:54:25.851Z,100002.03
2023-01-20T18:56:55.777Z,100009.75
2023-01-20T18:59:28.310Z,100014.81
2023-01-20T19:01:59.293Z,100016.16
2023-01-20T19:04:30.001Z,100016.75
2023-01-20T19:06:59.611Z,100021.56
2023-01-20T19:09:29.400Z,100026.41
2023-01-20T19:12:01.610Z,100030.94
2023-01-20T19:14:33.758Z,100033.81
2023-01-20T19:17:03.316Z,100035.00
2023-01-20T19:19:32.875Z,100040.50
2023-01-20T19:22:02.508Z,100041.09
2023-01-20T19:24:32.300Z,100045.91
2023-01-20T19:27:03.084Z,100045.28
2023-01-20T19:29:35.218Z,100049.44
2023-01-20T19:32:04.756Z,100052.28
2023-01-20T19:34:34.334Z,100045.66
2023-01-20T19:37:04.056Z,100061.66
2023-01-20T19:39:33.709Z,100056.41
2023-01-20T19:42:03.269Z,100055.31
2023-01-20T19:44:35.394Z,100061.88
2023-01-20T19:47:05.053Z,100067.66
2023-01-20T19:49:34.621Z,100070.41
2023-01-20T19:52:04.218Z,100070.81
2023-01-20T19:54:34.423Z,100074.66
2023-01-20T19:57:03.970Z,100073.66
2023-01-20T19:59:40.756Z,100081.38
2023-01-20T20:02:11.692Z,100085.25
2023-01-20T20:04:41.580Z,100091.19
2023-01-20T20:07:11.245Z,100089.72
2023-01-20T20:09:40.916Z,100093.59
2023-01-20T20:12:10.505Z,100101.75
2023-01-20T20:14:48.722Z,100102.53
2023-01-20T20:17:18.283Z,100098.03
2023-01-20T20:19:48.151Z,100107.41
2023-01-20T20:22:17.705Z,100107.84
2023-01-20T20:24:47.305Z,100104.78
2023-01-20T20:27:16.849Z,100107.72
2023-01-20T20:29:48.991Z,100104.25
2023-01-20T20:32:18.701Z,100112.34
2023-01-20T20:34:48.681Z,100118.88
2023-01-20T20:37:18.326Z,100124.16
2023-01-20T20:39:47.849Z,100126.25
2023-01-20T20:42:17.832Z,100130.03
2023-01-20T20:44:49.984Z,100132.75
2023-01-20T20:47:20.378Z,100133.81
2023-01-20T20:49:49.949Z,100141.56
2023-01-20T20:52:19.569Z,100141.41
2023-01-20T20:54:49.579Z,100147.56
2023-01-20T20:57:19.113Z,100155.53
2023-01-20T20:59:58.889Z,100156.69
2023-01-20T21:02:29.419Z,100157.44
2023-01-20T21:04:59.026Z,100156.56
2023-01-20T21:07:28.600Z,100162.25
2023-01-20T21:09:58.527Z,100159.25
2023-01-20T21:12:28.105Z,100168.53
2023-01-20T21:15:00.298Z,100176.31
2023-01-20T21:17:29.832Z,100174.97
2023-01-20T21:20:00.003Z,100174.94
2023-01-20T21:22:29.701Z,100178.97
2023-01-20T21:24:59.304Z,100180.88
2023-01-20T21:27:28.899Z,100181.91
2023-01-20T21:30:01.021Z,100187.94
2023-01-20T21:32:30.901Z,100186.84
2023-01-20T21:35:01.980Z,100197.09
2023-01-20T21:37:31.517Z,100192.38
2023-01-20T21:40:01.090Z,100198.88
2023-01-20T21:42:30.616Z,100194.22
2023-01-20T21:45:00.208Z,100201.81
2023-01-20T21:47:29.739Z,100198.91
2023-01-20T21:50:11.824Z,100197.81
2023-01-20T21:52:45.291Z,100212.44
2023-01-20T21:55:18.965Z,100207.25
2023-01-20T21:57:51.062Z,100209.09
2023-01-20T22:00:24.274Z,100216.16
2023-01-20T22:02:53.849Z,100218.69
2023-01-20T22:05:23.480Z,100221.38
2023-01-20T22:07:53.028Z,100217.25
2023-01-20T22:10:22.539Z,100217.97
2023-01-20T22:12:52.182Z,100220.47
2023-01-20T22:15:24.281Z,100222.50
2023-01-20T22:17:53.803Z,100223.66
2023-01-20T22:20:23.328Z,100229.88
2023-01-20T22:22:52.871Z,100234.25
2023-01-20T22:25:22.432Z,100227.59
2023-01-20T22:27:51.972Z,100238.84
2023-01-20T22:30:24.183Z,100242.09
2023-01-20T22:32:53.718Z,100246.13
2023-01-20T22:35:23.235Z,100235.66
2023-01-20T22:37:52.752Z,100247.28
2023-01-20T22:40:22.412Z,100241.75
2023-01-20T22:42:51.930Z,100248.59
2023-01-20T22:45:24.135Z,100255.66
2023-01-20T22:47:53.696Z,100259.44
2023-01-20T22:50:23.221Z,100253.78
2023-01-20T22:52:52.742Z,100262.78
2023-01-20T22:55:22.238Z,100264.22
2023-01-20T22:57:52.524Z,100262.06
2023-01-20T23:00:25.307Z,100272.28
2023-01-20T23:02:54.854Z,100267.88
2023-01-20T23:05:24.448Z,100272.91
2023-01-20T23:07:53.961Z,100272.25
2023-01-20T23:10:35.808Z,100274.00
2023-01-20T23:13:05.357Z,100273.63
2023-01-20T23:15:37.451Z,100280.56
2023-01-20T23:18:07.532Z,100281.69
2023-01-20T23:20:37.171Z,100278.84
2023-01-20T23:23:07.050Z,100292.16
2023-01-20T23:25:36.821Z,100277.03
2023-01-20T23:28:06.427Z,100283.03
2023-01-20T23:30:38.859Z,100296.50
2023-01-20T23:33:09.298Z,100295.78
2023-01-20T23:35:39.852Z,100299.47
2023-01-20T23:38:09.494Z,100300.53
2023-01-20T23:40:39.181Z,100299.03
2023-01-20T23:43:09.031Z,100302.59
2023-01-20T23:45:41.115Z,100299.50
2023-01-20T23:48:10.759Z,100303.03
2023-01-20T23:50:40.297Z,100300.81
2023-01-20T23:53:09.827Z,100309.63
2023-01-20T23:55:39.814Z,100312.63
2023-01-20T23:58:09.340Z,100324.72
